Airfield :







YOU CAN JOIN US ON...

 
LOGIN :

Register | Disclaimer

   EN    FR    IT 

 









Legend :    VFR   Marginal VFR   IFR   Intensive IFR   Very Intensive IFR
Visi :
Ceiling :
>= 8 km
>= 3000ft
5 to 8 km
1000 to 3000 ft
1500m to 5 km
500 to 1000 ft
800 to 1500m
200 to 500 ft
< 800m
< 200 ft
Symbols :   Thunderstorms  Fog  Heavy snow  Heavy precipitations  Wind > 20 kt






- Airport Elevation : 477 ft
- IATA code : YHZ


CYHZ - Halifax Stanfield Int.

CURRENT METAR :
  • 260600Z 13003KT 15SM FEW065 09/06 A2991 RMK SC1 SC TR SLP132

EXPIRED METARs :
  • 260500Z 35003KT 290V360 15SM FEW065 11/06 A2989 RMK SC1 SC TR SLP126
  • 260400Z 36003KT 310V010 15SM FEW065 11/06 A2989 RMK SC2 SLP126
  • 260300Z 36005KT 15SM FEW070 10/06 A2988 RMK AC1 SLP121
  • 260200Z 36007KT 15SM FEW075 12/07 A2987 RMK AC1 AC TR SLP118

TAF TAF CYHZ
Valid from the 26 at 06:00 until the 27 at 06:00 UTC


260540Z 2606/2706 VRB03KT P6SM FEW070
FM261000 13008KT P6SM FEW008 SCT040 BKN140
FM261400 14012KT P6SM FEW050 BKN120
FM261800 15012KT P6SM -SHRA BKN050 OVC080
FM262100 14008KT P6SM -SHRA BKN015 BKN030 OVC060
FM270000 14008KT P6SM SCT006 OVC012
PROB30 2700/2706 BKN006 OVC012 RMK NXT FCST BY 260900Z
CZQM FIR / North America



MET'MAP, your aeronautical weather chart ! - Copyright ORBIFLY December 2007 - Disclaimer

ORBIFLY MET'MAP TEAM :

Programming & Development : Alexandra Zaïnal
Original concept : Baudouin d'Aumeries
Technical & hardware support : Manuel Goepfert
Assistance : Marc-Olivier Méhu




SOURCES & CREDITS :

   NOAA